createdAt,value
2023-04-01T00:02:12.441Z,5.72
2023-04-01T00:08:17.851Z,3.83
2023-04-01T00:14:21.406Z,5.78
2023-04-01T00:20:25.077Z,5.35
2023-04-01T00:26:29.993Z,5.75
2023-04-01T00:32:33.582Z,5.97
2023-04-01T00:38:37.292Z,7.55
2023-04-01T00:44:42.671Z,4.70
2023-04-01T00:50:55.823Z,9.32
2023-04-01T00:57:02.723Z,5.57
2023-04-01T01:03:10.706Z,5.03
2023-04-01T01:09:24.866Z,4.88
2023-04-01T01:15:29.381Z,4.30
2023-04-01T01:21:48.996Z,3.50
2023-04-01T01:28:16.796Z,4.78
2023-04-01T01:34:24.634Z,7.72
2023-04-01T01:40:30.784Z,8.02
2023-04-01T01:46:34.521Z,3.67
2023-04-01T01:52:38.000Z,6.80
2023-04-01T01:58:44.861Z,3.95
2023-04-01T02:04:50.592Z,5.90
2023-04-01T02:10:58.252Z,7.20
2023-04-01T02:17:06.147Z,5.47
2023-04-01T02:23:10.406Z,6.45
2023-04-01T02:29:16.146Z,3.95
2023-04-01T02:35:21.840Z,4.78
2023-04-01T02:41:25.898Z,3.58
2023-04-01T02:47:30.603Z,4.93
2023-04-01T02:53:35.590Z,3.63
2023-04-01T02:59:39.389Z,4.40
2023-04-01T03:05:43.018Z,5.25
2023-04-01T03:11:47.839Z,4.22
2023-04-01T03:17:52.549Z,3.58
2023-04-01T03:23:56.075Z,4.90
2023-04-01T03:30:01.467Z,2.97
2023-04-01T03:36:07.455Z,4.80
2023-04-01T03:42:11.176Z,4.80
2023-04-01T03:48:16.359Z,6.10
2023-04-01T03:54:21.098Z,5.22
2023-04-01T04:00:25.345Z,4.65
2023-04-01T04:06:30.676Z,3.58
2023-04-01T04:12:34.143Z,4.18
2023-04-01T04:18:37.530Z,4.97
2023-04-01T04:24:42.571Z,5.15
2023-04-01T04:30:46.215Z,5.13
2023-04-01T04:36:49.668Z,5.80
2023-04-01T04:42:54.536Z,4.65
2023-04-01T04:48:58.034Z,3.60
2023-04-01T04:55:01.568Z,4.75
2023-04-01T05:01:10.057Z,4.10
2023-04-01T05:07:13.701Z,3.53
2023-04-01T05:13:17.117Z,4.20
2023-04-01T05:19:22.153Z,3.05
2023-04-01T05:25:26.078Z,3.85
2023-04-01T05:31:29.764Z,2.13
2023-04-01T05:37:37.495Z,4.60
2023-04-01T05:43:41.393Z,3.13
2023-04-01T05:49:44.834Z,3.40
2023-04-01T05:55:52.775Z,3.58
2023-04-01T06:01:58.275Z,3.60
2023-04-01T06:08:03.607Z,12.95
2023-04-01T06:14:14.689Z,4.35
2023-04-01T06:20:23.993Z,4.18
2023-04-01T06:26:32.393Z,2.90
2023-04-01T06:32:55.680Z,3.53
2023-04-01T06:39:18.886Z,4.38
2023-04-01T06:45:29.813Z,2.28
2023-04-01T06:51:35.469Z,3.22
2023-04-01T06:57:42.794Z,4.57
2023-04-01T07:03:48.288Z,3.28
2023-04-01T07:09:53.894Z,2.13
2023-04-01T07:16:09.994Z,3.03
2023-04-01T07:22:23.147Z,2.85
2023-04-01T07:28:26.708Z,1.77
2023-04-01T07:34:33.115Z,2.40
2023-04-01T07:40:42.186Z,2.85
2023-04-01T07:46:53.847Z,3.47
2023-04-01T07:53:03.434Z,4.28
2023-04-01T07:59:12.557Z,2.15
2023-04-01T08:05:20.598Z,1.20
2023-04-01T08:11:31.909Z,1.75
2023-04-01T08:17:38.771Z,2.15
2023-04-01T08:23:46.109Z,1.90
2023-04-01T08:29:53.162Z,1.98
2023-04-01T08:35:59.745Z,3.05
2023-04-01T08:42:24.266Z,2.20
2023-04-01T08:48:47.246Z,2.33
2023-04-01T08:55:06.934Z,1.35
2023-04-01T09:01:16.532Z,2.28
2023-04-01T09:07:24.741Z,1.30
2023-04-01T09:13:49.119Z,0.68
2023-04-01T09:20:04.059Z,2.90
2023-04-01T09:26:14.276Z,1.35
2023-04-01T09:32:28.025Z,1.50
2023-04-01T09:38:38.753Z,1.80
2023-04-01T09:44:45.685Z,1.00
2023-04-01T09:50:55.826Z,1.90
2023-04-01T09:57:17.224Z,1.88
2023-04-01T10:03:40.577Z,0.80
2023-04-01T10:10:05.192Z,1.30
2023-04-01T10:16:17.405Z,2.05
2023-04-01T10:22:27.432Z,2.35
2023-04-01T10:28:40.901Z,1.38
2023-04-01T10:35:10.162Z,2.95
2023-04-01T10:41:26.374Z,1.83
2023-04-01T10:47:44.659Z,1.83
2023-04-01T10:53:52.411Z,2.00
2023-04-01T11:00:10.809Z,2.22
2023-04-01T11:12:59.236Z,1.70
2023-04-01T11:19:21.234Z,1.60
2023-04-01T11:25:37.595Z,2.08
2023-04-01T11:31:53.174Z,2.50
2023-04-01T11:38:02.038Z,1.83
2023-04-01T11:44:20.477Z,2.03
2023-04-01T11:50:31.858Z,1.80
2023-04-01T11:56:47.376Z,2.90
2023-04-01T12:02:58.611Z,2.70
2023-04-01T12:09:07.136Z,0.90
2023-04-01T12:15:19.014Z,0.60
2023-04-01T12:21:27.465Z,0.50
2023-04-01T12:27:45.728Z,1.10
2023-04-01T12:33:58.153Z,0.40
2023-04-01T12:40:05.703Z,2.03
2023-04-01T12:46:16.455Z,2.10
2023-04-01T12:52:25.450Z,1.20
2023-04-01T12:58:38.697Z,0.43
2023-04-01T13:05:06.421Z,2.08
2023-04-01T13:11:16.805Z,0.68
2023-04-01T13:17:23.557Z,2.13
2023-04-01T13:23:37.284Z,0.65
2023-04-01T13:29:43.572Z,1.02
2023-04-01T13:35:49.103Z,2.25
2023-04-01T13:42:01.887Z,2.33
2023-04-01T13:48:26.303Z,0.65
2023-04-01T13:54:40.414Z,2.63
2023-04-01T14:00:52.195Z,2.15
2023-04-01T14:07:01.421Z,0.82
2023-04-01T14:13:10.478Z,2.22
2023-04-01T14:19:20.517Z,2.67
2023-04-01T14:25:44.246Z,2.35
2023-04-01T14:31:56.485Z,1.88
2023-04-01T14:38:03.851Z,1.33
2023-04-01T14:44:32.969Z,3.97
2023-04-01T14:50:45.716Z,4.85
2023-04-01T14:56:51.513Z,2.00
2023-04-01T15:03:00.016Z,1.75
2023-04-01T15:09:09.379Z,2.47
2023-04-01T15:15:20.016Z,4.45
2023-04-01T15:21:42.616Z,2.58
2023-04-01T15:27:50.507Z,1.00
2023-04-01T15:34:03.117Z,5.00
2023-04-01T15:40:14.228Z,5.68
2023-04-01T15:46:33.528Z,2.40
2023-04-01T15:52:41.728Z,4.03
2023-04-01T15:58:49.832Z,2.60
2023-04-01T16:04:59.204Z,3.78
2023-04-01T16:11:09.319Z,3.28
2023-04-01T16:17:22.467Z,1.90
2023-04-01T16:23:29.666Z,2.83
2023-04-01T16:29:36.711Z,2.92
2023-04-01T16:35:44.424Z,4.00
2023-04-01T16:41:52.638Z,6.55
2023-04-01T16:47:57.988Z,2.92
2023-04-01T16:54:07.730Z,2.25
2023-04-01T17:00:19.891Z,2.75
2023-04-01T17:06:29.993Z,0.70
2023-04-01T17:12:37.417Z,1.85
2023-04-01T17:18:47.370Z,2.63
2023-04-01T17:24:56.034Z,3.85
2023-04-01T17:31:05.271Z,2.70
2023-04-01T17:37:20.686Z,2.58
2023-04-01T17:43:29.882Z,4.20
2023-04-01T17:49:38.204Z,3.20
2023-04-01T17:55:48.007Z,2.58
2023-04-01T18:01:57.449Z,3.13
2023-04-01T18:08:06.777Z,5.15
2023-04-01T18:14:25.020Z,5.00
2023-04-01T18:20:39.586Z,3.85
2023-04-01T18:26:45.083Z,4.47
2023-04-01T18:32:51.805Z,4.68
2023-04-01T18:38:58.157Z,2.97
2023-04-01T18:45:04.897Z,2.95
2023-04-01T18:51:14.757Z,3.38
2023-04-01T18:57:21.096Z,3.92
2023-04-01T19:03:26.331Z,3.90
2023-04-01T19:09:30.588Z,4.13
2023-04-01T19:15:40.535Z,4.60
2023-04-01T19:21:48.082Z,4.78
2023-04-01T19:27:52.971Z,5.53
2023-04-01T19:34:02.840Z,7.25
2023-04-01T19:40:27.251Z,9.80
2023-04-01T19:46:33.020Z,10.63
2023-04-01T19:52:39.241Z,6.25
2023-04-01T19:58:46.653Z,6.05
2023-04-01T20:04:51.501Z,7.43
2023-04-01T20:11:01.922Z,10.38
2023-04-01T20:17:12.010Z,8.43
2023-04-01T20:23:36.111Z,12.32
2023-04-01T20:29:58.416Z,15.80
2023-04-01T20:36:08.776Z,16.02
2023-04-01T20:42:30.114Z,16.35
2023-04-01T20:48:51.095Z,18.35
2023-04-01T20:55:02.127Z,14.82
2023-04-01T21:01:12.140Z,14.95
2023-04-01T21:07:23.890Z,13.45
2023-04-01T21:13:35.738Z,17.77
2023-04-01T21:20:05.175Z,15.20
2023-04-01T21:26:22.807Z,17.63
2023-04-01T21:32:44.343Z,15.18
2023-04-01T21:38:55.612Z,11.38
2023-04-01T21:45:08.259Z,12.73
2023-04-01T21:51:30.460Z,15.25
2023-04-01T21:57:45.962Z,12.25
2023-04-01T22:04:02.297Z,13.15
2023-04-01T22:10:08.382Z,10.90
2023-04-01T22:16:14.607Z,15.65
2023-04-01T22:22:21.946Z,20.95
2023-04-01T22:28:28.992Z,17.90
2023-04-01T22:34:38.121Z,19.15
2023-04-01T22:40:45.898Z,14.73
2023-04-01T22:46:55.191Z,16.50
2023-04-01T22:53:02.153Z,20.42
2023-04-01T22:59:11.219Z,23.00
2023-04-01T23:05:16.228Z,18.15
2023-04-01T23:11:22.899Z,17.25
2023-04-01T23:17:41.468Z,15.15
2023-04-01T23:23:51.322Z,14.98
2023-04-01T23:29:54.725Z,16.08
2023-04-01T23:36:06.117Z,21.00
2023-04-01T23:42:10.601Z,14.32
2023-04-01T23:48:18.496Z,15.40
2023-04-01T23:54:26.790Z,21.65
